Time;durP1;ratioP1;P1;durP2;ratioP2;P2;SDS_P1;SDS_P2;PMS_P1;PMS_P2;Temp;Humidity;BMP_temperature;BMP_pressure;BME280_temperature;BME280_humidity;BME280_pressure;Samples;Min_cycle;Max_cycle;Signal;HPM_P1;HPM_P2
2020/08/27 06:31:19;;;;;;;0.8;0.3;;;;;;;20.98;51.43945;940.5447;;;;
2020/08/27 06:33:45;;;;;;;0.7;0.6;;;;;;;21.1;49.52344;940.4664;;;;
2020/08/27 06:36:10;;;;;;;0.2;0.2;;;;;;;21.62;49.03027;940.4291;;;;
2020/08/27 06:38:37;;;;;;;0.5;0.4;;;;;;;21.99;49.00195;940.4255;;;;
2020/08/27 06:41:02;;;;;;;0.5;0.4;;;;;;;22.48;47.00195;940.3527;;;;
2020/08/27 06:43:27;;;;;;;3.3;0.4;;;;;;;22.87;46.17285;940.316;;;;
2020/08/27 06:45:55;;;;;;;0.4;0.3;;;;;;;23.24;44.21484;940.2605;;;;
2020/08/27 06:48:21;;;;;;;1.9;0.7;;;;;;;23.93;43.4248;940.2605;;;;
2020/08/27 06:50:46;;;;;;;0.6;0.4;;;;;;;24.68;42.89551;940.1805;;;;
2020/08/27 06:53:11;;;;;;;0.7;0.2;;;;;;;23.62;42.3584;940.1006;;;;
2020/08/27 06:55:41;;;;;;;0.7;0.4;;;;;;;23.07;44.87891;940.0128;;;;
2020/08/27 06:58:08;;;;;;;0.8;0.4;;;;;;;23.37;44.28711;939.9825;;;;
2020/08/27 07:00:41;;;;;;;0.5;0.3;;;;;;;22.87;45.10645;939.9479;;;;
2020/08/27 07:03:06;;;;;;;0.3;0.3;;;;;;;22.5;45.50195;939.9236;;;;
2020/08/27 07:05:33;;;;;;;0.3;0.2;;;;;;;22.83;46.27637;939.9931;;;;
2020/08/27 07:07:58;;;;;;;1.4;0.7;;;;;;;23.13;45.71875;939.9919;;;;
2020/08/27 07:10:23;;;;;;;0.3;0.3;;;;;;;22.1;46.27051;940.0027;;;;
2020/08/27 07:13:46;;;;;;;1.2;0.3;;;;;;;22.56;46.55273;939.9902;;;;
2020/08/27 07:16:11;;;;;;;2.2;0.5;;;;;;;23.09;45.01074;939.9257;;;;
2020/08/27 07:18:36;;;;;;;0.5;0.4;;;;;;;22.86;43.34277;939.8777;;;;
2020/08/27 07:21:01;;;;;;;1;0.5;;;;;;;23.43;43.1748;939.9341;;;;
2020/08/27 07:23:26;;;;;;;1.5;0.5;;;;;;;22.51;45.37402;939.868;;;;
2020/08/27 07:25:52;;;;;;;2;0.5;;;;;;;23.13;45.62695;939.8544;;;;
2020/08/27 07:28:17;;;;;;;1;0.6;;;;;;;23.63;42.8418;939.8044;;;;
2020/08/27 07:30:43;;;;;;;0.3;0.2;;;;;;;22.8;44.4873;939.7495;;;;
2020/08/27 07:33:08;;;;;;;2.8;0.5;;;;;;;23.78;43.93848;939.7661;;;;
2020/08/27 07:35:41;;;;;;;1.8;0.8;;;;;;;23.72;42.0498;939.7173;;;;
2020/08/27 07:38:06;;;;;;;1.2;0.5;;;;;;;25.08;40.52637;939.6092;;;;
2020/08/27 07:40:31;;;;;;;1.2;0.5;;;;;;;26.27;38.20898;939.5953;;;;
2020/08/27 07:42:56;;;;;;;1.3;0.6;;;;;;;27.4;35.56445;939.598;;;;
2020/08/27 07:45:30;;;;;;;0.5;0.4;;;;;;;28.86;33.12109;939.5972;;;;
2020/08/27 07:47:55;;;;;;;0.8;0.2;;;;;;;29.7;32.5752;939.5773;;;;
2020/08/27 07:50:23;;;;;;;0.6;0.2;;;;;;;30.89;31.26172;939.5298;;;;
2020/08/27 07:52:48;;;;;;;0.4;0.2;;;;;;;31.91;29.12793;939.5681;;;;
2020/08/27 07:55:14;;;;;;;0.8;0.4;;;;;;;32.08;29.31836;939.5173;;;;
2020/08/27 07:57:39;;;;;;;0.5;0.3;;;;;;;33.12;27.71582;939.5535;;;;
2020/08/27 08:00:04;;;;;;;1.1;0.5;;;;;;;33.15;27.05664;939.524;;;;
2020/08/27 08:02:29;;;;;;;0.8;0.3;;;;;;;33.3;27.42578;939.508;;;;
2020/08/27 08:04:54;;;;;;;0.8;0.5;;;;;;;33.17;25.65234;939.4775;;;;
2020/08/27 08:07:19;;;;;;;1.4;0.5;;;;;;;34;25.93945;939.4722;;;;
2020/08/27 08:09:44;;;;;;;0.5;0.2;;;;;;;34.17;24.96191;939.4767;;;;
2020/08/27 08:12:13;;;;;;;0.3;0.2;;;;;;;34.34;24.2002;939.46;;;;
2020/08/27 08:14:38;;;;;;;0.6;0.2;;;;;;;34.63;24.37305;939.3959;;;;
2020/08/27 08:17:06;;;;;;;0.5;0.4;;;;;;;34.18;23.72266;939.3745;;;;
2020/08/27 08:19:31;;;;;;;4.2;0.6;;;;;;;34.28;26.16016;939.3173;;;;
2020/08/27 08:21:56;;;;;;;0.5;0.4;;;;;;;33.67;27.43555;939.2336;;;;
2020/08/27 08:24:21;;;;;;;0.7;0.5;;;;;;;32.15;27.98145;939.2429;;;;
2020/08/27 08:26:46;;;;;;;0.6;0.3;;;;;;;31.94;27.84766;939.2411;;;;
2020/08/27 08:29:12;;;;;;;0.7;0.3;;;;;;;31.81;27.43262;939.2522;;;;
2020/08/27 08:31:37;;;;;;;0.6;0.4;;;;;;;31.94;29.75293;939.2245;;;;
2020/08/27 08:34:02;;;;;;;2.7;0.4;;;;;;;31.58;27.51367;939.1267;;;;
2020/08/27 08:36:28;;;;;;;1.1;0.3;;;;;;;31.5;28.7666;939.0898;;;;
2020/08/27 08:38:56;;;;;;;0.3;0.3;;;;;;;31.54;29.42773;939.0891;;;;
2020/08/27 08:41:21;;;;;;;0.7;0.4;;;;;;;31.23;30.32813;939.1153;;;;
2020/08/27 08:43:46;;;;;;;0.7;0.3;;;;;;;31.26;31.0127;939.0783;;;;
2020/08/27 08:46:11;;;;;;;1;0.6;;;;;;;30.86;31.28418;938.9545;;;;
2020/08/27 08:48:37;;;;;;;4.2;0.3;;;;;;;31.13;33.64746;939.0263;;;;
2020/08/27 08:51:06;;;;;;;1.7;0.5;;;;;;;30.74;33.46191;938.9955;;;;
2020/08/27 08:53:31;;;;;;;0.8;0.4;;;;;;;30.41;33.45117;938.912;;;;
2020/08/27 08:55:56;;;;;;;1;0.3;;;;;;;30.12;33.45215;938.9323;;;;
2020/08/27 08:58:24;;;;;;;0.5;0.3;;;;;;;29.36;32.87207;938.8195;;;;
2020/08/27 09:00:50;;;;;;;0.3;0.2;;;;;;;29.6;34.9043;938.8211;;;;
2020/08/27 09:03:15;;;;;;;1.5;0.4;;;;;;;29.17;34.62109;938.7608;;;;
2020/08/27 09:05:40;;;;;;;2.5;0.4;;;;;;;28.64;36.78125;938.722;;;;
2020/08/27 09:08:05;;;;;;;0.3;0.2;;;;;;;28.03;40.59277;938.6697;;;;
2020/08/27 09:10:30;;;;;;;0.8;0.6;;;;;;;27.98;37.87891;938.6258;;;;
2020/08/27 09:12:56;;;;;;;1;0.5;;;;;;;28.14;38.85449;938.5793;;;;
2020/08/27 09:15:31;;;;;;;0.5;0.3;;;;;;;27.94;40.42969;938.5952;;;;
2020/08/27 09:17:56;;;;;;;0.7;0.4;;;;;;;28.04;38.82227;938.5008;;;;
2020/08/27 09:20:21;;;;;;;0.9;0.4;;;;;;;28.27;39.03223;938.4683;;;;
2020/08/27 09:22:47;;;;;;;0.4;0.3;;;;;;;27.97;39.89746;938.429;;;;
2020/08/27 09:25:14;;;;;;;0.4;0.3;;;;;;;28.03;37.72949;938.4231;;;;
2020/08/27 09:27:40;;;;;;;3.2;0.7;;;;;;;28.96;35.85449;938.4238;;;;
2020/08/27 09:30:05;;;;;;;1.6;0.7;;;;;;;28.8;37.53223;938.3787;;;;
2020/08/27 09:32:34;;;;;;;0.4;0.3;;;;;;;29.59;34.64063;938.3201;;;;
2020/08/27 09:34:59;;;;;;;1.9;0.6;;;;;;;29.44;34.22461;938.3381;;;;
2020/08/27 09:37:24;;;;;;;0.2;0.2;;;;;;;29.97;34.25293;938.308;;;;
2020/08/27 09:39:49;;;;;;;1.3;0.7;;;;;;;30.18;36.52441;938.3318;;;;
2020/08/27 09:42:14;;;;;;;0.5;0.4;;;;;;;30.29;36.93945;938.3206;;;;
2020/08/27 09:44:39;;;;;;;0.4;0.3;;;;;;;30.1;37.44922;938.3425;;;;
2020/08/27 09:47:06;;;;;;;0.9;0.7;;;;;;;29.4;32.66113;938.2224;;;;
2020/08/27 09:49:31;;;;;;;1.1;0.4;;;;;;;28.93;36.72168;938.2626;;;;
2020/08/27 09:51:56;;;;;;;2.1;0.4;;;;;;;29.5;34.94434;938.1997;;;;
2020/08/27 09:54:21;;;;;;;1.3;0.5;;;;;;;29.53;36.19824;938.1721;;;;
2020/08/27 09:56:46;;;;;;;1.3;0.7;;;;;;;29.72;34.30566;938.1772;;;;
2020/08/27 09:59:11;;;;;;;0.8;0.4;;;;;;;29.41;33.11426;938.1147;;;;
2020/08/27 10:01:42;;;;;;;1.3;0.7;;;;;;;29.21;33.77832;938.1752;;;;
2020/08/27 10:04:07;;;;;;;7;0.7;;;;;;;28.98;34.87988;938.1624;;;;
2020/08/27 10:06:34;;;;;;;2.8;1.1;;;;;;;28.88;34.66992;938.2261;;;;
2020/08/27 10:08:59;;;;;;;2.2;0.9;;;;;;;28.11;35.38281;938.2321;;;;
2020/08/27 10:11:24;;;;;;;2.3;0.6;;;;;;;28.21;37.96973;938.2355;;;;
2020/08/27 10:13:49;;;;;;;1.2;0.7;;;;;;;28.68;37.43848;938.2213;;;;
2020/08/27 10:16:18;;;;;;;1;0.4;;;;;;;28.97;36.16504;938.2263;;;;
2020/08/27 10:18:44;;;;;;;0.4;0.3;;;;;;;29.33;35.87207;938.1828;;;;
2020/08/27 10:21:09;;;;;;;3.1;0.6;;;;;;;29.37;35.81543;938.134;;;;
2020/08/27 10:23:34;;;;;;;1.1;0.3;;;;;;;30.33;33.47949;938.1443;;;;
2020/08/27 10:25:59;;;;;;;0.6;0.5;;;;;;;30.96;31.9248;938.1372;;;;
2020/08/27 10:28:24;;;;;;;0.6;0.5;;;;;;;31.04;33.59277;938.0999;;;;
2020/08/27 10:30:49;;;;;;;3.1;1.2;;;;;;;31.66;33.72168;938.117;;;;
2020/08/27 10:33:14;;;;;;;2.1;0.6;;;;;;;31.82;32.7998;938.0325;;;;
2020/08/27 10:35:39;;;;;;;1.4;0.5;;;;;;;32;31.49512;938.1058;;;;
2020/08/27 10:38:05;;;;;;;0.3;0.3;;;;;;;32;30.69238;937.9981;;;;
2020/08/27 10:40:30;;;;;;;2.7;0.6;;;;;;;32.6;32.25684;937.9412;;;;
2020/08/27 10:42:55;;;;;;;1;0.6;;;;;;;32.25;32.5791;937.8547;;;;
2020/08/27 10:45:26;;;;;;;1.8;0.4;;;;;;;32.35;33.06641;937.8605;;;;
2020/08/27 10:47:51;;;;;;;0.8;0.6;;;;;;;32.3;31.59961;937.8583;;;;
2020/08/27 10:50:16;;;;;;;0.4;0.3;;;;;;;33.26;30.80078;937.7289;;;;
2020/08/27 10:52:42;;;;;;;0.8;0.3;;;;;;;33.73;29.28125;937.7248;;;;
2020/08/27 10:55:11;;;;;;;1.4;0.7;;;;;;;33.24;30.57129;937.6942;;;;
2020/08/27 10:57:32;;;;;;;0.5;0.4;;;;;;;33.88;29.5918;937.6163;;;;
2020/08/27 10:59:57;;;;;;;2;0.8;;;;;;;33.63;28.54102;937.5439;;;;
2020/08/27 11:02:23;;;;;;;2.5;0.3;;;;;;;34.13;28.99316;937.5406;;;;
2020/08/27 11:04:48;;;;;;;0.8;0.3;;;;;;;34.52;28.56055;937.511;;;;
2020/08/27 11:07:13;;;;;;;1;0.3;;;;;;;33.41;29.58496;937.4695;;;;
2020/08/27 11:09:40;;;;;;;0.2;0.2;;;;;;;32.28;30.1709;937.5483;;;;
2020/08/27 11:12:05;;;;;;;7.6;0.9;;;;;;;31.41;32.59082;937.5432;;;;
2020/08/27 11:14:30;;;;;;;3.5;0.7;;;;;;;30.79;35.15137;937.4961;;;;
2020/08/27 11:16:55;;;;;;;0.4;0.3;;;;;;;30.64;34.85254;937.4683;;;;
2020/08/27 11:19:20;;;;;;;1.6;0.3;;;;;;;29.39;35.34082;937.52;;;;
2020/08/27 11:21:46;;;;;;;3.4;0.6;;;;;;;28.66;36.27148;937.5004;;;;
2020/08/27 11:24:11;;;;;;;0.5;0.4;;;;;;;28.99;37.29785;937.4556;;;;
2020/08/27 11:26:38;;;;;;;2.5;0.6;;;;;;;29.34;37.12402;937.4327;;;;
2020/08/27 11:29:03;;;;;;;0.7;0.4;;;;;;;29.74;34.87891;937.3861;;;;
2020/08/27 11:31:28;;;;;;;0.6;0.6;;;;;;;29.62;34.96582;937.3558;;;;
2020/08/27 11:33:53;;;;;;;2.4;0.6;;;;;;;29.26;36.18848;937.3864;;;;
2020/08/27 11:36:18;;;;;;;2.1;0.6;;;;;;;29.1;35.66309;937.3569;;;;
2020/08/27 11:38:45;;;;;;;1.2;0.5;;;;;;;28.71;38.32227;937.3323;;;;
2020/08/27 11:41:10;;;;;;;2.2;0.9;;;;;;;28.1;39.92188;937.2451;;;;
2020/08/27 11:43:36;;;;;;;1.4;0.6;;;;;;;27.66;39.87012;937.3425;;;;
2020/08/27 11:46:01;;;;;;;2.4;0.9;;;;;;;27.31;40.00488;937.3082;;;;
2020/08/27 11:48:27;;;;;;;1.6;0.4;;;;;;;27.2;40.43457;937.3865;;;;
2020/08/27 11:50:52;;;;;;;2.2;0.9;;;;;;;27.42;40.54883;937.2733;;;;
2020/08/27 11:53:18;;;;;;;2.6;0.4;;;;;;;28;42.01563;937.3433;;;;
2020/08/27 11:55:44;;;;;;;1.6;0.5;;;;;;;28.42;39.36621;937.3592;;;;
2020/08/27 11:58:11;;;;;;;0.9;0.6;;;;;;;28.14;38.85449;937.2764;;;;
2020/08/27 12:00:43;;;;;;;0.7;0.4;;;;;;;28.19;40.03613;937.3008;;;;
2020/08/27 12:03:08;;;;;;;6.5;0.9;;;;;;;28.68;39.56738;937.2034;;;;
2020/08/27 12:05:33;;;;;;;1.2;0.5;;;;;;;29.11;40.09375;937.0811;;;;
2020/08/27 12:07:58;;;;;;;0.8;0.5;;;;;;;28.7;38.87988;937.0848;;;;
2020/08/27 12:10:23;;;;;;;1.7;0.4;;;;;;;28.42;38.19043;937.1188;;;;
2020/08/27 12:12:48;;;;;;;1;0.6;;;;;;;28.23;40.20605;937.1479;;;;
2020/08/27 12:15:13;;;;;;;0.5;0.3;;;;;;;28.41;39.60449;937.1783;;;;
2020/08/27 12:17:38;;;;;;;0.5;0.4;;;;;;;29.07;39.59082;937.0784;;;;
2020/08/27 12:20:03;;;;;;;1;0.6;;;;;;;29.36;38.22168;937.1013;;;;
2020/08/27 12:22:29;;;;;;;0.9;0.5;;;;;;;29.59;37.70508;937.0477;;;;
2020/08/27 12:24:54;;;;;;;1.1;0.7;;;;;;;29.6;36.64551;936.9495;;;;
2020/08/27 12:27:19;;;;;;;0.6;0.4;;;;;;;29.35;38.61426;936.9572;;;;
2020/08/27 12:29:46;;;;;;;1.4;0.5;;;;;;;29.36;37.80469;936.9883;;;;
2020/08/27 12:32:11;;;;;;;2.6;0.5;;;;;;;29.33;36.30176;936.9742;;;;
2020/08/27 12:34:36;;;;;;;1.1;0.5;;;;;;;28.8;37.49609;936.8875;;;;
2020/08/27 12:37:01;;;;;;;0.4;0.3;;;;;;;28.67;38.62695;936.9428;;;;
2020/08/27 12:39:26;;;;;;;0.8;0.5;;;;;;;28.42;38.87891;936.9928;;;;
2020/08/27 12:41:51;;;;;;;0.9;0.5;;;;;;;28.15;38.27441;936.9554;;;;
2020/08/27 12:44:16;;;;;;;2.1;0.8;;;;;;;27.68;39.70605;937.0068;;;;
2020/08/27 12:46:42;;;;;;;2.3;0.7;;;;;;;27.28;40.66602;936.9224;;;;
2020/08/27 12:49:07;;;;;;;0.7;0.4;;;;;;;26.83;42.43848;936.8533;;;;
2020/08/27 12:51:32;;;;;;;0.7;0.5;;;;;;;26.56;42.76855;936.947;;;;
2020/08/27 12:53:57;;;;;;;1.1;0.5;;;;;;;26.47;44.1582;936.9086;;;;
2020/08/27 12:56:22;;;;;;;2;0.6;;;;;;;26.27;43.60449;936.9222;;;;
2020/08/27 12:58:47;;;;;;;0.9;0.4;;;;;;;26.51;42.68066;936.834;;;;
2020/08/27 13:01:12;;;;;;;0.5;0.3;;;;;;;26.47;43.16211;936.8262;;;;
2020/08/27 13:03:38;;;;;;;5.2;1.5;;;;;;;26.32;44.9707;936.766;;;;
2020/08/27 13:06:03;;;;;;;2.6;1;;;;;;;26.45;44.0127;936.7709;;;;
2020/08/27 13:08:28;;;;;;;0.4;0.4;;;;;;;26.25;43.59082;936.7757;;;;
2020/08/27 13:10:54;;;;;;;0.7;0.5;;;;;;;25.88;43.62598;936.7717;;;;
2020/08/27 13:13:19;;;;;;;0.8;0.5;;;;;;;25.84;45.20605;936.8049;;;;
2020/08/27 13:15:54;;;;;;;1.3;0.5;;;;;;;26.06;44.7793;936.8472;;;;
2020/08/27 13:18:17;;;;;;;2.9;0.6;;;;;;;26.14;44.18359;936.8251;;;;
2020/08/27 13:20:42;;;;;;;2.2;0.9;;;;;;;26.23;44.15625;936.8362;;;;
2020/08/27 13:23:08;;;;;;;1.7;0.9;;;;;;;26.1;44.0498;936.7842;;;;
2020/08/27 13:25:33;;;;;;;1.3;0.8;;;;;;;26.06;45.12109;936.7888;;;;
2020/08/27 13:27:58;;;;;;;1.3;0.7;;;;;;;25.59;45.26367;936.93;;;;
2020/08/27 13:30:29;;;;;;;0.8;0.5;;;;;;;25.48;46.18652;936.8906;;;;
2020/08/27 13:32:54;;;;;;;1.8;0.8;;;;;;;25.47;46.75098;936.8898;;;;
2020/08/27 13:35:19;;;;;;;0.4;0.4;;;;;;;25.58;46.92871;936.8809;;;;
2020/08/27 13:37:44;;;;;;;0.8;0.5;;;;;;;25.73;45.82129;936.882;;;;
2020/08/27 13:40:09;;;;;;;1.6;0.7;;;;;;;25.78;45.7793;936.8051;;;;
2020/08/27 13:42:34;;;;;;;1.4;0.8;;;;;;;25.52;46.64941;936.7822;;;;
2020/08/27 13:45:00;;;;;;;1.8;1;;;;;;;25.77;45.45898;936.7488;;;;
2020/08/27 13:47:25;;;;;;;2.5;0.7;;;;;;;25.69;46.58496;936.7364;;;;
2020/08/27 13:49:51;;;;;;;0.7;0.5;;;;;;;25.77;44.78516;936.7109;;;;
2020/08/27 13:52:18;;;;;;;1;0.6;;;;;;;25.73;45.24316;936.7236;;;;
2020/08/27 13:54:43;;;;;;;0.7;0.6;;;;;;;25.38;45.37305;936.7155;;;;
2020/08/27 13:57:09;;;;;;;1.8;0.7;;;;;;;24.96;46.01367;936.7123;;;;
2020/08/27 13:59:34;;;;;;;0.9;0.4;;;;;;;24.94;46.04688;936.6803;;;;
2020/08/27 14:02:01;;;;;;;1.7;0.7;;;;;;;24.91;46.44434;936.7078;;;;
2020/08/27 14:04:26;;;;;;;0.9;0.5;;;;;;;24.86;46.60449;936.7329;;;;
2020/08/27 14:06:51;;;;;;;4.5;0.9;;;;;;;24.66;46.90234;936.8033;;;;
2020/08/27 14:09:17;;;;;;;2.6;0.6;;;;;;;24.99;47.42188;936.8236;;;;
2020/08/27 14:11:42;;;;;;;2.1;0.8;;;;;;;24.98;47.5498;936.7595;;;;
2020/08/27 14:14:07;;;;;;;1.1;0.7;;;;;;;25.13;47.38867;936.7311;;;;
2020/08/27 14:16:32;;;;;;;2;0.6;;;;;;;25.23;47.22266;936.74;;;;
2020/08/27 14:18:57;;;;;;;3.9;1;;;;;;;25.33;46.22949;936.745;;;;
2020/08/27 14:21:22;;;;;;;0.7;0.5;;;;;;;25.38;46.31641;936.6978;;;;
2020/08/27 14:23:47;;;;;;;1.3;0.9;;;;;;;25.54;46.5332;936.7028;;;;
2020/08/27 14:26:13;;;;;;;0.9;0.4;;;;;;;25.68;45.76855;936.587;;;;
2020/08/27 14:28:38;;;;;;;9.6;0.8;;;;;;;25.73;46.1875;936.5858;;;;
2020/08/27 14:31:07;;;;;;;30.9;1.3;;;;;;;25.59;47.53125;936.5958;;;;
2020/08/27 14:33:32;;;;;;;1.8;0.7;;;;;;;25.6;47.2959;936.5529;;;;
2020/08/27 14:35:57;;;;;;;0.8;0.4;;;;;;;25.62;47.96094;936.5125;;;;
2020/08/27 14:38:22;;;;;;;0.9;0.5;;;;;;;25.46;47.30566;936.4595;;;;
2020/08/27 14:40:47;;;;;;;1.2;0.7;;;;;;;25.28;47.6875;936.4457;;;;
2020/08/27 14:43:12;;;;;;;2.6;1.1;;;;;;;25;47.16211;936.3452;;;;
2020/08/27 14:45:37;;;;;;;1.5;0.7;;;;;;;24.7;47.81348;936.3234;;;;
2020/08/27 14:48:03;;;;;;;1.1;0.6;;;;;;;24.22;48.7998;936.3056;;;;
2020/08/27 14:50:28;;;;;;;1;0.7;;;;;;;24.21;49.5752;936.509;;;;
2020/08/27 14:52:53;;;;;;;0.7;0.4;;;;;;;24.06;49.21777;936.5541;;;;
2020/08/27 14:55:18;;;;;;;1.8;0.8;;;;;;;24.25;49.20508;936.49;;;;
2020/08/27 14:57:43;;;;;;;4.6;0.7;;;;;;;24.51;49.25586;936.6627;;;;
2020/08/27 15:00:08;;;;;;;0.7;0.5;;;;;;;24.72;50.35254;936.7818;;;;
2020/08/27 15:02:34;;;;;;;0.6;0.5;;;;;;;24.86;49.87207;936.7388;;;;
2020/08/27 15:05:00;;;;;;;0.5;0.4;;;;;;;25.03;48.75879;936.7015;;;;
2020/08/27 15:07:25;;;;;;;0.9;0.4;;;;;;;25.12;47.18652;936.7413;;;;
2020/08/27 15:09:50;;;;;;;0.9;0.4;;;;;;;25.05;47.47461;936.7064;;;;
2020/08/27 15:12:15;;;;;;;16;0.9;;;;;;;25.07;47.84277;936.6434;;;;
2020/08/27 15:14:41;;;;;;;0.6;0.5;;;;;;;24.99;49.19141;936.6541;;;;
2020/08/27 15:17:06;;;;;;;1.2;0.6;;;;;;;24.92;48.8877;936.6657;;;;
2020/08/27 15:19:35;;;;;;;0.7;0.4;;;;;;;25.04;47.82813;936.6261;;;;
2020/08/27 15:22:01;;;;;;;1;0.5;;;;;;;25.03;47.97949;936.6682;;;;
2020/08/27 15:24:27;;;;;;;2;0.7;;;;;;;24.98;47.79785;936.7238;;;;
2020/08/27 15:26:52;;;;;;;0.5;0.4;;;;;;;24.94;48.01758;936.7175;;;;
2020/08/27 15:29:17;;;;;;;0.4;0.3;;;;;;;24.71;48.3584;936.7286;;;;
2020/08/27 15:31:46;;;;;;;0.8;0.4;;;;;;;24.63;48.43164;936.5807;;;;
2020/08/27 15:34:11;;;;;;;1;0.5;;;;;;;24.72;48.06445;936.5463;;;;
2020/08/27 15:36:36;;;;;;;2.3;0.6;;;;;;;24.67;47.5293;936.5193;;;;
2020/08/27 15:39:01;;;;;;;1.6;0.3;;;;;;;24.72;48.47754;936.4919;;;;
2020/08/27 15:41:26;;;;;;;1.3;0.6;;;;;;;24.69;47.87305;936.5331;;;;
2020/08/27 15:43:51;;;;;;;2.8;1.1;;;;;;;24.48;48.70996;936.5062;;;;
2020/08/27 15:46:17;;;;;;;1.9;0.8;;;;;;;24.32;48.75098;936.4354;;;;
2020/08/27 15:48:43;;;;;;;0.7;0.2;;;;;;;24.09;49.20898;936.3508;;;;
2020/08/27 15:51:08;;;;;;;1.7;0.6;;;;;;;24.02;49.21387;936.2551;;;;
2020/08/27 15:53:35;;;;;;;2.8;0.8;;;;;;;24.09;48.83203;936.2892;;;;
2020/08/27 15:56:00;;;;;;;0.7;0.4;;;;;;;24.05;49.19238;936.2797;;;;
2020/08/27 15:58:26;;;;;;;1.6;0.4;;;;;;;23.84;49.95898;936.3205;;;;
2020/08/27 16:00:53;;;;;;;0.7;0.4;;;;;;;23.78;50.23438;936.2838;;;;
2020/08/27 16:03:18;;;;;;;0.8;0.5;;;;;;;23.92;51.05078;936.1841;;;;
2020/08/27 16:05:43;;;;;;;1.6;0.7;;;;;;;24;50.44727;936.1857;;;;
2020/08/27 16:08:08;;;;;;;0.8;0.5;;;;;;;23.88;49.48047;936.1074;;;;
2020/08/27 16:12:58;;;;;;;0.5;0.4;;;;;;;23.62;50.09961;936.0847;;;;
2020/08/27 16:15:23;;;;;;;0.7;0.5;;;;;;;23.63;50.38281;936.0586;;;;
2020/08/27 16:17:49;;;;;;;0.5;0.4;;;;;;;23.43;50.93652;936.1213;;;;
2020/08/27 16:20:15;;;;;;;0.4;0.3;;;;;;;23.48;50.7998;936.0981;;;;
2020/08/27 16:22:40;;;;;;;4;0.7;;;;;;;23.54;50.7959;936.0776;;;;
2020/08/27 16:25:08;;;;;;;0.4;0.3;;;;;;;23.33;51.51074;936.0428;;;;
2020/08/27 16:27:34;;;;;;;1.5;0.5;;;;;;;23.48;51.7998;936.0475;;;;
2020/08/27 16:29:59;;;;;;;1.7;1;;;;;;;23.55;51.7373;936.0072;;;;
2020/08/27 16:32:24;;;;;;;1.3;0.6;;;;;;;23.61;51.29688;935.9706;;;;
2020/08/27 16:34:49;;;;;;;3.3;0.6;;;;;;;23.73;51.27539;935.9048;;;;
2020/08/27 16:37:14;;;;;;;9.6;0.9;;;;;;;23.75;52.3252;935.9218;;;;
2020/08/27 16:39:39;;;;;;;3;0.8;;;;;;;23.54;51.70215;935.9369;;;;
2020/08/27 16:42:05;;;;;;;0.3;0.3;;;;;;;23.58;51.88184;935.9321;;;;
2020/08/27 16:44:30;;;;;;;1.6;0.7;;;;;;;23.37;53.26855;935.9305;;;;
2020/08/27 16:46:56;;;;;;;1.8;0.5;;;;;;;22.95;53.61719;935.8707;;;;
2020/08/27 16:49:21;;;;;;;0.8;0.5;;;;;;;22.99;53.7627;935.8731;;;;
2020/08/27 16:51:46;;;;;;;0.4;0.4;;;;;;;23.08;54.05664;935.8703;;;;
2020/08/27 16:54:12;;;;;;;2.9;0.5;;;;;;;22.87;54.03027;935.87;;;;
2020/08/27 16:56:38;;;;;;;3.1;0.5;;;;;;;22.76;54.82715;935.8211;;;;
2020/08/27 16:59:04;;;;;;;1.7;0.6;;;;;;;22.87;54.75879;935.7855;;;;
2020/08/27 17:01:30;;;;;;;1;0.7;;;;;;;22.62;55.4668;935.8867;;;;
2020/08/27 17:03:55;;;;;;;1.2;0.7;;;;;;;22.32;55.72363;935.8853;;;;
2020/08/27 17:06:20;;;;;;;1.3;0.7;;;;;;;22.25;56.43066;935.8859;;;;
2020/08/27 17:08:45;;;;;;;1.1;0.8;;;;;;;22.41;56.91895;935.8267;;;;
2020/08/27 17:11:11;;;;;;;0.9;0.5;;;;;;;22.51;56.18066;935.7924;;;;
2020/08/27 17:13:38;;;;;;;0.5;0.4;;;;;;;22.56;56.03516;935.8329;;;;
2020/08/27 17:16:10;;;;;;;0.5;0.4;;;;;;;22.6;57.37793;935.8283;;;;
2020/08/27 17:18:36;;;;;;;0.7;0.4;;;;;;;22.36;57.51074;935.8605;;;;
2020/08/27 17:21:01;;;;;;;1.4;0.9;;;;;;;22.37;58.90723;935.8975;;;;
2020/08/27 17:23:30;;;;;;;0.6;0.5;;;;;;;22.3;59.12207;935.9258;;;;
2020/08/27 17:25:54;;;;;;;5.5;1.5;;;;;;;22.15;59.59375;935.9302;;;;
2020/08/27 17:28:20;;;;;;;5.4;1.5;;;;;;;22.09;59.84277;935.9487;;;;
2020/08/27 17:30:53;;;;;;;1.1;0.6;;;;;;;22.1;58.47363;935.9127;;;;
2020/08/27 17:33:18;;;;;;;2.4;0.9;;;;;;;22.02;59.94043;935.8825;;;;
2020/08/27 17:35:44;;;;;;;1.3;0.6;;;;;;;21.89;60.9541;935.9077;;;;
2020/08/27 17:38:09;;;;;;;0.8;0.5;;;;;;;21.82;61.14355;935.9256;;;;
2020/08/27 17:40:34;;;;;;;0.6;0.4;;;;;;;21.7;61.68945;935.9331;;;;
2020/08/27 17:43:01;;;;;;;0.8;0.5;;;;;;;21.58;62.07129;935.9576;;;;
2020/08/27 17:45:30;;;;;;;3.6;0.6;;;;;;;21.54;62.47461;935.9379;;;;
2020/08/27 17:47:55;;;;;;;0.7;0.4;;;;;;;21.51;62.59961;936.0469;;;;
2020/08/27 17:50:20;;;;;;;1.8;0.7;;;;;;;21.5;62.3291;936.0641;;;;
2020/08/27 17:52:48;;;;;;;6.4;0.6;;;;;;;21.52;62.9043;936.0669;;;;
2020/08/27 17:55:18;;;;;;;1.7;0.9;;;;;;;21.35;63.79297;936.0695;;;;
2020/08/27 17:57:46;;;;;;;0.7;0.3;;;;;;;21.21;63.44727;936.0751;;;;
2020/08/27 18:00:17;;;;;;;1.4;0.6;;;;;;;21.22;63.16699;936.032;;;;
2020/08/27 18:02:42;;;;;;;2.1;0.8;;;;;;;21.08;63.03027;936.1016;;;;
2020/08/27 18:05:16;;;;;;;0.6;0.5;;;;;;;21.09;63.06738;936.1013;;;;
2020/08/27 18:07:43;;;;;;;0.7;0.3;;;;;;;21.13;63.3291;936.1136;;;;
2020/08/27 18:10:08;;;;;;;1;0.6;;;;;;;21.14;63.04883;936.1312;;;;
2020/08/27 18:12:35;;;;;;;0.9;0.5;;;;;;;21.09;63.38184;936.1418;;;;
2020/08/27 18:15:00;;;;;;;1.4;0.5;;;;;;;21.05;63.80957;936.2435;;;;
2020/08/27 18:17:25;;;;;;;1.4;0.8;;;;;;;21.01;63.87305;936.2011;;;;
2020/08/27 18:19:50;;;;;;;3.6;0.9;;;;;;;20.96;64.21582;936.1501;;;;
2020/08/27 18:22:16;;;;;;;1.4;1;;;;;;;20.88;64.84863;936.1414;;;;
2020/08/27 18:24:44;;;;;;;2.7;1;;;;;;;20.73;65.5752;936.1453;;;;
2020/08/27 18:27:08;;;;;;;1.1;0.6;;;;;;;20.7;65.86133;936.1328;;;;
2020/08/27 18:29:37;;;;;;;0.4;0.4;;;;;;;20.57;65.45703;936.0938;;;;
2020/08/27 18:32:05;;;;;;;0.6;0.5;;;;;;;20.52;66.13867;936.1057;;;;
2020/08/27 18:34:30;;;;;;;1.2;0.8;;;;;;;20.49;65.75;936.1122;;;;
2020/08/27 18:37:08;;;;;;;0.3;0.3;;;;;;;20.52;65.52051;936.1333;;;;
2020/08/27 18:39:36;;;;;;;2.5;0.8;;;;;;;20.5;65.94824;936.1259;;;;
2020/08/27 18:42:03;;;;;;;0.6;0.4;;;;;;;20.33;66.59082;936.1451;;;;
2020/08/27 18:44:28;;;;;;;1;0.7;;;;;;;20.27;66.71973;936.1585;;;;
2020/08/27 18:46:57;;;;;;;0.7;0.4;;;;;;;20.22;67.24902;936.1841;;;;
2020/08/27 18:49:22;;;;;;;2.3;0.5;;;;;;;20.17;67.02051;936.175;;;;
2020/08/27 18:51:47;;;;;;;0.7;0.6;;;;;;;20.14;67.24805;936.1833;;;;
2020/08/27 18:54:12;;;;;;;1.3;0.6;;;;;;;20.1;67.76758;936.195;;;;
2020/08/27 18:56:43;;;;;;;2.3;0.7;;;;;;;20.12;67.3623;936.2341;;;;
2020/08/27 18:59:08;;;;;;;0.6;0.5;;;;;;;20.09;67.11328;936.2866;;;;
2020/08/27 19:01:37;;;;;;;0.5;0.5;;;;;;;20.13;66.92188;936.2626;;;;
2020/08/27 19:04:02;;;;;;;3.2;0.5;;;;;;;20.14;66.09375;936.2567;;;;
2020/08/27 19:06:27;;;;;;;1;0.7;;;;;;;19.98;66.11621;936.301;;;;
2020/08/27 19:08:52;;;;;;;1.5;0.9;;;;;;;20.11;66.17188;936.2844;;;;
2020/08/27 19:11:18;;;;;;;0.5;0.4;;;;;;;20.17;65.59668;936.2704;;;;
2020/08/27 19:13:54;;;;;;;0.8;0.4;;;;;;;20.24;65.79395;936.2612;;;;
2020/08/27 19:16:10;;;;;;;1.1;0.6;;;;;;;20.29;66.31445;936.272;;;;
2020/08/27 19:18:40;;;;;;;1.2;0.4;;;;;;;20.26;65.39941;936.2979;;;;
2020/08/27 19:21:09;;;;;;;2.9;0.9;;;;;;;20.27;65.41211;936.2806;;;;
2020/08/27 19:23:34;;;;;;;1.3;0.6;;;;;;;20.28;65.55371;936.1817;;;;
2020/08/27 19:25:59;;;;;;;1.1;0.7;;;;;;;20.22;65.98926;936.1631;;;;
2020/08/27 19:28:24;;;;;;;1.5;0.7;;;;;;;20.15;66.03711;936.1925;;;;
2020/08/27 19:30:52;;;;;;;1.7;0.7;;;;;;;20.11;66.25195;936.2101;;;;
2020/08/27 19:33:17;;;;;;;4.1;0.6;;;;;;;20.02;66.6123;936.134;;;;
2020/08/27 19:35:42;;;;;;;1;0.8;;;;;;;19.84;67.15723;936.2023;;;;
2020/08/27 19:38:07;;;;;;;1.3;0.7;;;;;;;19.83;67.28418;936.2238;;;;
2020/08/27 19:40:32;;;;;;;1.1;0.6;;;;;;;19.89;67.39746;936.2009;;;;
2020/08/27 19:42:57;;;;;;;1.1;0.8;;;;;;;19.92;67.22656;936.1735;;;;
2020/08/27 19:45:24;;;;;;;2;0.9;;;;;;;19.92;67.35645;936.2049;;;;
2020/08/27 19:47:49;;;;;;;2.5;1.2;;;;;;;19.9;67.27051;936.157;;;;
2020/08/27 19:50:19;;;;;;;6.7;1;;;;;;;19.86;67.36914;936.2746;;;;
2020/08/27 19:52:46;;;;;;;4.1;0.9;;;;;;;19.72;67.9082;936.1951;;;;
2020/08/27 19:55:17;;;;;;;1.4;0.9;;;;;;;19.67;68.06445;936.1893;;;;
2020/08/27 19:57:42;;;;;;;0.8;0.6;;;;;;;19.58;68.48047;936.1528;;;;
2020/08/27 20:00:07;;;;;;;1.1;0.8;;;;;;;19.56;68.47852;936.1897;;;;
2020/08/27 20:02:32;;;;;;;1.5;0.9;;;;;;;19.51;68.77246;936.1845;;;;
2020/08/27 20:04:57;;;;;;;3.5;0.9;;;;;;;19.43;68.92383;936.2416;;;;
2020/08/27 20:07:22;;;;;;;1.3;1.1;;;;;;;18.61;71.98242;936.2266;;;;
2020/08/27 20:09:53;;;;;;;2.5;0.8;;;;;;;18.32;73.66895;936.2011;;;;
2020/08/27 20:12:17;;;;;;;1.7;0.6;;;;;;;18.44;73.19824;936.2042;;;;
2020/08/27 20:14:54;;;;;;;3.8;1.1;;;;;;;18.63;72.46387;936.188;;;;
2020/08/27 20:17:16;;;;;;;2.1;1.2;;;;;;;18.73;72.27051;936.2056;;;;
2020/08/27 20:19:45;;;;;;;3.6;1;;;;;;;18.79;71.93066;936.151;;;;
2020/08/27 20:22:21;;;;;;;1.7;1;;;;;;;18.82;71.79492;936.106;;;;
2020/08/27 20:24:47;;;;;;;2.1;1.2;;;;;;;18.64;72.25391;936.1;;;;
2020/08/27 20:27:13;;;;;;;1.1;0.7;;;;;;;18.61;72.08691;936.1114;;;;
2020/08/27 20:29:38;;;;;;;1;0.7;;;;;;;18.57;71.74414;936.0662;;;;
2020/08/27 20:32:07;;;;;;;1.3;0.7;;;;;;;18.37;71.73438;936.0798;;;;
2020/08/27 20:34:32;;;;;;;2.1;1;;;;;;;18.2;72.53223;936.0675;;;;
2020/08/27 20:36:58;;;;;;;2.2;1;;;;;;;18.01;73.43945;935.9878;;;;
2020/08/27 20:39:23;;;;;;;2.6;1.1;;;;;;;17.91;73.69238;936.0037;;;;
2020/08/27 20:41:48;;;;;;;2.9;0.6;;;;;;;17.82;74.11816;935.9612;;;;
2020/08/27 20:44:13;;;;;;;1.5;0.7;;;;;;;17.94;73.40625;935.9355;;;;
2020/08/27 20:46:38;;;;;;;1.6;0.9;;;;;;;17.75;73.99121;935.986;;;;
2020/08/27 20:49:03;;;;;;;1.1;0.8;;;;;;;17.69;74.31738;936.0421;;;;
2020/08/27 20:51:28;;;;;;;1.4;0.9;;;;;;;17.71;74.33203;936.032;;;;